Time,TemperatureF,DewpointF,PressureIn,WindDirection,WindDirectionDegrees,WindSpeedMPH,WindSpeedGustMPH,Humidity,HourlyPrecipIn,Conditions,Clouds,dailyrainin,SoftwareType,DateUTC
2013-05-23 00:03:00,62.0,60.0,29.80,WNW,295,1.0,4.0,93,0.01,,,0.09,,2013-05-23 04:03:00,
2013-05-23 00:12:00,62.0,60.0,29.80,WNW,295,1.0,4.0,93,0.01,,,0.09,,2013-05-23 04:12:00,
2013-05-23 00:22:00,62.0,60.0,29.79,WSW,245,1.0,2.0,93,0.00,,,0.09,,2013-05-23 04:22:00,
2013-05-23 00:33:00,62.0,60.0,29.80,WSW,255,0.0,2.0,93,0.00,,,0.09,,2013-05-23 04:33:00,
2013-05-23 00:42:00,62.0,60.0,29.80,WSW,255,0.0,2.0,93,0.00,,,0.09,,2013-05-23 04:42:00,
2013-05-23 00:52:00,62.0,60.0,29.79,West,266,0.0,1.0,94,0.00,,,0.09,,2013-05-23 04:52:00,
2013-05-23 01:02:00,62.0,60.0,29.79,West,271,0.0,2.0,94,0.00,,,0.09,,2013-05-23 05:02:00,
2013-05-23 01:11:00,62.0,60.0,29.79,West,271,0.0,2.0,94,0.00,,,0.09,,2013-05-23 05:11:00,
2013-05-23 01:22:00,62.0,60.0,29.79,WSW,253,1.0,2.0,94,0.00,,,0.09,,2013-05-23 05:22:00,
2013-05-23 01:32:00,62.0,60.0,29.79,WNW,285,0.0,3.0,94,0.00,,,0.09,,2013-05-23 05:32:00,
2013-05-23 01:42:00,62.0,60.0,29.80,WSW,255,2.0,5.0,93,0.00,,,0.09,,2013-05-23 05:42:00,
2013-05-23 01:52:00,62.0,60.0,29.80,WSW,255,2.0,5.0,93,0.00,,,0.09,,2013-05-23 05:52:00,
2013-05-23 02:02:00,62.0,60.0,29.80,WSW,248,3.0,6.0,93,0.00,,,0.09,,2013-05-23 06:02:00,
2013-05-23 02:12:00,62.0,59.0,29.79,SSW,201,1.0,4.0,91,0.00,,,0.09,,2013-05-23 06:12:00,
2013-05-23 02:21:00,62.0,59.0,29.79,SSW,201,1.0,4.0,91,0.00,,,0.09,,2013-05-23 06:21:00,
2013-05-23 02:32:00,62.0,59.0,29.79,West,278,2.0,6.0,91,0.00,,,0.09,,2013-05-23 06:32:00,
2013-05-23 02:42:00,62.0,59.0,29.79,West,278,2.0,6.0,91,0.00,,,0.09,,2013-05-23 06:42:00,
2013-05-23 02:52:00,62.0,59.0,29.79,WNW,283,1.0,5.0,91,0.00,,,0.09,,2013-05-23 06:52:00,
2013-05-23 03:02:00,62.0,59.0,29.79,WSW,257,1.0,4.0,91,0.00,,,0.09,,2013-05-23 07:02:00,
2013-05-23 03:11:00,62.0,59.0,29.79,WSW,257,1.0,4.0,91,0.00,,,0.09,,2013-05-23 07:11:00,
2013-05-23 03:21:00,61.0,58.0,29.80,WNW,290,2.0,7.0,90,0.00,,,0.09,,2013-05-23 07:21:00,
2013-05-23 03:31:00,61.0,58.0,29.80,NW,307,1.0,6.0,89,0.00,,,0.09,,2013-05-23 07:31:00,
2013-05-23 03:42:00,61.0,57.0,29.80,SW,220,2.0,4.0,88,0.00,,,0.09,,2013-05-23 07:42:00,
2013-05-23 03:59:00,61.0,57.0,29.80,SW,220,2.0,4.0,88,0.00,,,0.09,,2013-05-23 07:59:00,
2013-05-23 04:11:00,61.0,58.0,29.80,SW,222,2.0,4.0,89,0.00,,,0.09,,2013-05-23 08:11:00,
2013-05-23 04:21:00,60.0,57.0,29.80,WSW,248,1.0,4.0,89,0.00,,,0.09,,2013-05-23 08:21:00,
2013-05-23 04:31:00,60.0,57.0,29.80,West,261,3.0,6.0,89,0.00,,,0.09,,2013-05-23 08:31:00,
2013-05-23 04:41:00,60.0,57.0,29.80,West,261,3.0,6.0,89,0.00,,,0.09,,2013-05-23 08:41:00,
2013-05-23 04:52:00,60.0,57.0,29.81,West,259,2.0,5.0,89,0.00,,,0.09,,2013-05-23 08:52:00,
2013-05-23 05:01:00,60.0,57.0,29.81,WSW,249,2.0,5.0,89,0.00,,,0.09,,2013-05-23 09:01:00,
2013-05-23 05:11:00,60.0,57.0,29.81,WSW,249,2.0,5.0,89,0.00,,,0.09,,2013-05-23 09:11:00,
2013-05-23 05:21:00,60.0,57.0,29.82,WSW,252,1.0,6.0,89,0.00,,,0.09,,2013-05-23 09:21:00,
2013-05-23 05:33:00,60.0,57.0,29.82,West,263,1.0,4.0,89,0.00,,,0.09,,2013-05-23 09:33:00,
2013-05-23 05:42:00,60.0,57.0,29.82,West,263,1.0,4.0,89,0.00,,,0.09,,2013-05-23 09:42:00,
2013-05-23 05:53:00,59.0,56.0,29.82,SW,236,2.0,5.0,89,0.00,,,0.09,,2013-05-23 09:53:00,
2013-05-23 06:02:00,59.0,56.0,29.83,West,280,2.0,4.0,89,0.00,,,0.09,,2013-05-23 10:02:00,
2013-05-23 06:12:00,59.0,56.0,29.83,West,280,2.0,4.0,89,0.00,,,0.09,,2013-05-23 10:12:00,
2013-05-23 07:52:00,59.0,56.0,29.85,SW,214,3.0,6.0,90,0.00,,,0.09,,2013-05-23 11:52:00,
2013-05-23 08:01:00,59.0,56.0,29.85,WSW,252,3.0,8.0,90,0.00,,,0.09,,2013-05-23 12:01:00,
2013-05-23 08:12:00,59.0,56.0,29.85,WSW,252,3.0,8.0,90,0.00,,,0.09,,2013-05-23 12:12:00,
2013-05-23 08:21:00,59.0,56.0,29.86,West,271,3.0,7.0,90,0.00,,,0.09,,2013-05-23 12:21:00,
2013-05-23 08:32:00,59.0,56.0,29.86,WSW,255,3.0,6.0,90,0.00,,,0.09,,2013-05-23 12:32:00,
2013-05-23 08:42:00,59.0,56.0,29.86,WSW,255,3.0,6.0,90,0.00,,,0.09,,2013-05-23 12:42:00,
2013-05-23 08:52:00,59.0,56.0,29.87,WNW,292,3.0,6.0,91,0.00,,,0.09,,2013-05-23 12:52:00,
2013-05-23 09:01:00,59.0,56.0,29.87,WSW,242,1.0,5.0,91,0.00,,,0.09,,2013-05-23 13:01:00,
2013-05-23 09:11:00,59.0,56.0,29.87,WSW,242,1.0,5.0,91,0.00,,,0.09,,2013-05-23 13:11:00,
2013-05-23 09:22:00,60.0,58.0,29.88,West,264,2.0,9.0,92,0.00,,,0.09,,2013-05-23 13:22:00,
2013-05-23 09:31:00,60.0,58.0,29.88,SSW,210,4.0,7.0,92,0.00,,,0.09,,2013-05-23 13:31:00,
2013-05-23 09:41:00,60.0,58.0,29.88,SSW,210,4.0,7.0,92,0.00,,,0.09,,2013-05-23 13:41:00,
2013-05-23 09:52:00,60.0,57.0,29.88,WSW,257,2.0,6.0,91,0.00,,,0.09,,2013-05-23 13:52:00,
2013-05-23 10:01:00,61.0,58.0,29.89,West,277,4.0,8.0,89,0.00,,,0.09,,2013-05-23 14:01:00,
2013-05-23 10:11:00,61.0,58.0,29.89,West,277,4.0,8.0,89,0.00,,,0.09,,2013-05-23 14:11:00,
2013-05-23 10:21:00,61.0,57.0,29.89,West,271,3.0,9.0,87,0.00,,,0.09,,2013-05-23 14:21:00,
2013-05-23 10:32:00,62.0,58.0,29.89,West,264,4.0,9.0,86,0.00,,,0.09,,2013-05-23 14:32:00,
2013-05-23 10:42:00,62.0,58.0,29.89,West,264,4.0,9.0,86,0.00,,,0.09,,2013-05-23 14:42:00,
2013-05-23 10:52:00,62.0,57.0,29.89,West,273,4.0,9.0,84,0.00,,,0.09,,2013-05-23 14:52:00,
2013-05-23 11:01:00,62.0,57.0,29.90,NNE,22,4.0,8.0,84,0.00,,,0.09,,2013-05-23 15:01:00,
2013-05-23 11:11:00,62.0,57.0,29.90,NNE,22,4.0,8.0,84,0.00,,,0.09,,2013-05-23 15:11:00,
2013-05-23 11:21:00,60.0,57.0,29.91,NE,39,4.0,8.0,91,0.00,,,0.09,,2013-05-23 15:21:00,
2013-05-23 11:32:00,59.0,57.0,29.91,NNW,334,2.0,6.0,92,0.01,,,0.10,,2013-05-23 15:32:00,
2013-05-23 11:42:00,59.0,57.0,29.91,NNW,334,2.0,6.0,92,0.01,,,0.10,,2013-05-23 15:42:00,
2013-05-23 11:53:00,58.0,56.0,29.92,NNE,15,4.0,8.0,93,0.02,,,0.11,,2013-05-23 15:53:00,
2013-05-23 12:03:00,57.0,55.0,29.92,NNE,15,3.0,8.0,93,0.02,,,0.11,,2013-05-23 16:03:00,
2013-05-23 12:12:00,57.0,55.0,29.92,NNE,15,3.0,8.0,93,0.02,,,0.11,,2013-05-23 16:12:00,
2013-05-23 12:23:00,55.0,53.0,29.94,NNW,327,3.0,13.0,93,0.02,,,0.11,,2013-05-23 16:23:00,
2013-05-23 12:33:00,54.0,52.0,29.95,South,189,4.0,13.0,93,0.01,,,0.11,,2013-05-23 16:33:00,
2013-05-23 12:42:00,54.0,52.0,29.95,South,189,4.0,13.0,93,0.01,,,0.11,,2013-05-23 16:42:00,
2013-05-23 12:52:00,53.0,51.0,29.96,North,349,4.0,12.0,94,0.00,,,0.11,,2013-05-23 16:52:00,
2013-05-23 13:03:00,53.0,51.0,29.96,North,1,7.0,18.0,93,0.00,,,0.11,,2013-05-23 17:03:00,
2013-05-23 13:11:00,53.0,51.0,29.96,North,1,7.0,18.0,93,0.00,,,0.11,,2013-05-23 17:11:00,
2013-05-23 13:22:00,52.0,50.0,29.97,North,1,5.0,15.0,93,0.00,,,0.11,,2013-05-23 17:22:00,
2013-05-23 13:33:00,53.0,50.0,29.97,NW,305,6.0,13.0,91,0.00,,,0.11,,2013-05-23 17:33:00,
2013-05-23 13:43:00,53.0,50.0,29.97,NW,305,6.0,13.0,91,0.00,,,0.11,,2013-05-23 17:43:00,
2013-05-23 13:52:00,52.0,49.0,29.98,North,349,5.0,16.0,89,0.00,,,0.11,,2013-05-23 17:52:00,
2013-05-23 14:01:00,53.0,49.0,29.98,NNW,333,5.0,14.0,87,0.00,,,0.11,,2013-05-23 18:01:00,
2013-05-23 14:11:00,53.0,49.0,29.98,NNW,333,5.0,14.0,87,0.00,,,0.11,,2013-05-23 18:11:00,
2013-05-23 14:21:00,53.0,48.0,29.98,North,1,3.0,15.0,84,0.01,,,0.12,,2013-05-23 18:21:00,
2013-05-23 14:32:00,53.0,48.0,29.99,NW,315,4.0,14.0,83,0.01,,,0.12,,2013-05-23 18:32:00,
2013-05-23 14:42:00,53.0,48.0,29.99,NW,315,4.0,14.0,83,0.01,,,0.12,,2013-05-23 18:42:00,
2013-05-23 14:52:00,53.0,47.0,30.00,NNE,19,10.0,19.0,81,0.01,,,0.12,,2013-05-23 18:52:00,
2013-05-23 15:01:00,52.0,47.0,30.00,NW,314,7.0,13.0,82,0.01,,,0.12,,2013-05-23 19:01:00,
2013-05-23 15:11:00,52.0,47.0,30.00,NW,314,7.0,13.0,82,0.01,,,0.12,,2013-05-23 19:11:00,
2013-05-23 15:21:00,52.0,46.0,30.02,NNW,345,5.0,15.0,81,0.00,,,0.12,,2013-05-23 19:21:00,
2013-05-23 15:32:00,52.0,47.0,30.02,NE,40,8.0,16.0,82,0.00,,,0.12,,2013-05-23 19:32:00,
2013-05-23 15:41:00,52.0,46.0,30.03,North,4,8.0,14.0,81,0.00,,,0.12,,2013-05-23 19:41:00,
2013-05-23 15:52:00,52.0,46.0,30.03,North,4,8.0,14.0,81,0.00,,,0.12,,2013-05-23 19:52:00,
2013-05-23 16:02:00,51.0,45.0,30.03,NNE,18,11.0,18.0,81,0.00,,,0.12,,2013-05-23 20:02:00,
2013-05-23 16:11:00,51.0,45.0,30.03,NNE,18,11.0,18.0,81,0.00,,,0.12,,2013-05-23 20:11:00,
2013-05-23 16:21:00,52.0,46.0,30.04,West,278,8.0,17.0,80,0.00,,,0.07,,2013-05-23 20:21:00,
2013-05-23 16:32:00,51.0,45.0,30.04,NNE,32,6.0,19.0,80,0.00,,,0.07,,2013-05-23 20:32:00,
2013-05-23 16:41:00,51.0,45.0,30.04,NNE,32,6.0,19.0,80,0.00,,,0.07,,2013-05-23 20:41:00,
2013-05-23 16:52:00,51.0,45.0,30.05,NNE,15,5.0,16.0,81,0.00,,,0.07,,2013-05-23 20:52:00,
2013-05-23 17:01:00,51.0,45.0,30.05,NE,36,7.0,17.0,81,0.00,,,0.07,,2013-05-23 21:01:00,
2013-05-23 17:11:00,51.0,45.0,30.05,NE,36,7.0,17.0,81,0.00,,,0.07,,2013-05-23 21:11:00,
2013-05-23 17:21:00,51.0,45.0,30.06,North,355,8.0,19.0,81,0.00,,,0.06,,2013-05-23 21:21:00,
2013-05-23 17:32:00,51.0,46.0,30.06,NE,39,6.0,16.0,82,0.00,,,0.06,,2013-05-23 21:32:00,
2013-05-23 17:43:00,51.0,46.0,30.06,NE,39,6.0,16.0,82,0.00,,,0.06,,2013-05-23 21:43:00,
2013-05-23 17:53:00,50.0,45.0,30.07,North,350,5.0,15.0,83,0.00,,,0.06,,2013-05-23 21:53:00,
2013-05-23 18:02:00,50.0,44.0,30.08,ENE,64,9.0,16.0,81,0.00,,,0.06,,2013-05-23 22:02:00,
2013-05-23 18:12:00,50.0,44.0,30.08,ENE,64,9.0,16.0,81,0.00,,,0.06,,2013-05-23 22:12:00,
2013-05-23 18:22:00,49.0,44.0,30.09,NNE,13,8.0,18.0,83,0.00,,,0.06,,2013-05-23 22:22:00,
2013-05-23 18:33:00,49.0,44.0,30.09,NNE,30,7.0,18.0,83,0.00,,,0.06,,2013-05-23 22:33:00,
2013-05-23 18:42:00,49.0,44.0,30.09,NNE,30,7.0,18.0,83,0.00,,,0.06,,2013-05-23 22:42:00,
2013-05-23 18:52:00,49.0,44.0,30.10,NNW,338,7.0,15.0,83,0.00,,,0.06,,2013-05-23 22:52:00,
2013-05-23 19:01:00,48.0,43.0,30.11,NE,37,7.0,14.0,83,0.00,,,0.06,,2013-05-23 23:01:00,
2013-05-23 19:11:00,48.0,43.0,30.12,NNE,21,6.0,13.0,84,0.00,,,0.06,,2013-05-23 23:11:00,
2013-05-23 19:21:00,48.0,43.0,30.12,NNE,21,6.0,13.0,84,0.00,,,0.06,,2013-05-23 23:21:00,
2013-05-23 19:31:00,48.0,43.0,30.12,WNW,297,5.0,12.0,84,0.00,,,0.06,,2013-05-23 23:31:00,
2013-05-23 19:42:00,48.0,43.0,30.12,WNW,297,5.0,12.0,84,0.00,,,0.06,,2013-05-23 23:42:00,
2013-05-23 19:52:00,48.0,43.0,30.13,NNW,332,4.0,18.0,83,0.00,,,0.06,,2013-05-23 23:52:00,
2013-05-23 20:01:00,48.0,43.0,30.13,NNW,338,8.0,17.0,82,0.00,,,0.06,,2013-05-24 00:01:00,
2013-05-23 20:12:00,48.0,43.0,30.13,NNW,338,8.0,17.0,82,0.00,,,0.06,,2013-05-24 00:12:00,
2013-05-23 20:21:00,48.0,42.0,30.14,NNE,15,8.0,15.0,81,0.00,,,0.06,,2013-05-24 00:21:00,
2013-05-23 20:31:00,48.0,42.0,30.14,NNW,330,4.0,11.0,81,0.00,,,0.06,,2013-05-24 00:31:00,
2013-05-23 20:42:00,48.0,42.0,30.14,NNW,330,4.0,11.0,81,0.00,,,0.06,,2013-05-24 00:42:00,
2013-05-23 20:52:00,48.0,42.0,30.15,NE,41,7.0,15.0,80,0.00,,,0.06,,2013-05-24 00:52:00,
2013-05-23 21:01:00,48.0,42.0,30.16,NE,37,8.0,14.0,80,0.00,,,0.06,,2013-05-24 01:01:00,
2013-05-23 21:12:00,48.0,42.0,30.16,NE,37,8.0,14.0,80,0.00,,,0.06,,2013-05-24 01:12:00,
2013-05-23 21:22:00,48.0,42.0,30.16,NE,39,6.0,16.0,79,0.00,,,0.06,,2013-05-24 01:22:00,
2013-05-23 21:32:00,48.0,41.0,30.16,NNE,19,7.0,16.0,78,0.00,,,0.06,,2013-05-24 01:32:00,
2013-05-23 21:41:00,48.0,41.0,30.16,NNE,19,7.0,16.0,78,0.00,,,0.06,,2013-05-24 01:41:00,
2013-05-23 21:52:00,48.0,38.0,30.17,NE,43,13.0,29.0,69,0.00,,,0.06,,2013-05-24 01:52:00,
2013-05-23 22:01:00,48.0,38.0,30.17,NE,43,8.0,13.0,69,0.00,,,0.06,,2013-05-24 02:01:00,
2013-05-23 22:11:00,48.0,38.0,30.17,NE,43,8.0,13.0,69,0.00,,,0.06,,2013-05-24 02:11:00,
2013-05-23 22:21:00,47.0,38.0,30.19,North,9,6.0,14.0,71,0.00,,,0.06,,2013-05-24 02:21:00,
2013-05-23 22:32:00,47.0,38.0,30.19,NE,49,7.0,16.0,70,0.00,,,0.06,,2013-05-24 02:32:00,
2013-05-23 22:42:00,47.0,38.0,30.19,NE,49,7.0,16.0,70,0.00,,,0.06,,2013-05-24 02:42:00,
2013-05-23 22:52:00,47.0,38.0,30.20,North,359,8.0,16.0,70,0.00,,,0.06,,2013-05-24 02:52:00,
2013-05-23 23:02:00,46.0,36.0,30.20,NNE,23,8.0,15.0,69,0.00,,,0.06,,2013-05-24 03:02:00,
2013-05-23 23:11:00,45.0,35.0,30.22,NW,314,4.0,17.0,67,0.00,,,0.03,,2013-05-24 03:11:00,
2013-05-23 23:21:00,45.0,35.0,30.22,NW,314,4.0,17.0,67,0.00,,,0.03,,2013-05-24 03:21:00,
2013-05-23 23:33:00,45.0,35.0,30.21,North,4,7.0,14.0,67,0.00,,,0.03,,2013-05-24 03:33:00,
2013-05-23 23:42:00,45.0,35.0,30.21,North,4,7.0,14.0,67,0.00,,,0.03,,2013-05-24 03:42:00,
2013-05-23 23:53:00,45.0,35.0,30.22,NE,39,6.0,12.0,67,0.00,,,0.03,,2013-05-24 03:53:00,